createdAt,value
2023-02-22T00:02:25.277Z,99772.58
2023-02-22T00:04:57.026Z,99769.63
2023-02-22T00:07:28.607Z,99770.98
2023-02-22T00:10:01.071Z,99774.79
2023-02-22T00:12:32.624Z,99776.71
2023-02-22T00:15:05.772Z,99782.80
2023-02-22T00:17:37.386Z,99784.70
2023-02-22T00:20:14.120Z,99786.77
2023-02-22T00:22:47.495Z,99787.11
2023-02-22T00:25:24.947Z,99794.95
2023-02-22T00:27:56.580Z,99795.41
2023-02-22T00:30:31.978Z,99795.57
2023-02-22T00:33:06.168Z,99799.36
2023-02-22T00:35:37.929Z,99797.63
2023-02-22T00:38:09.562Z,99799.94
2023-02-22T00:40:41.163Z,99795.34
2023-02-22T00:43:13.721Z,99800.77
2023-02-22T00:45:45.392Z,99803.23
2023-02-22T00:48:17.339Z,99805.58
2023-02-22T00:50:48.946Z,99803.19
2023-02-22T00:53:21.131Z,99811.38
2023-02-22T00:55:54.011Z,99815.07
2023-02-22T00:58:26.930Z,99815.67
2023-02-22T01:00:58.593Z,99811.60
2023-02-22T01:03:32.292Z,99812.66
2023-02-22T01:06:04.284Z,99813.88
2023-02-22T01:08:35.914Z,99814.55
2023-02-22T01:11:07.510Z,99819.77
2023-02-22T01:13:39.538Z,99820.45
2023-02-22T01:16:11.393Z,99822.19
2023-02-22T01:18:43.093Z,99819.93
2023-02-22T01:21:15.196Z,99822.70
2023-02-22T01:23:47.344Z,99822.69
2023-02-22T01:26:18.968Z,99824.38
2023-02-22T01:28:50.540Z,99826.80
2023-02-22T01:31:24.228Z,99833.02
2023-02-22T01:33:55.839Z,99839.25
2023-02-22T01:36:27.532Z,99842.86
2023-02-22T01:38:59.050Z,99839.53
2023-02-22T01:41:30.674Z,99844.48
2023-02-22T01:44:20.248Z,99845.87
2023-02-22T01:46:51.823Z,99843.23
2023-02-22T01:49:35.716Z,99844.25
2023-02-22T01:52:10.479Z,99848.23
2023-02-22T01:54:47.070Z,99848.40
2023-02-22T01:57:24.695Z,99847.71
2023-02-22T02:00:01.815Z,99848.58
2023-02-22T02:02:33.451Z,99847.84
2023-02-22T02:05:08.409Z,99849.03
2023-02-22T02:07:40.856Z,99847.61
2023-02-22T02:10:15.527Z,99844.63
2023-02-22T02:12:50.441Z,99843.05
2023-02-22T02:15:31.980Z,99843.52
2023-02-22T02:18:07.226Z,99844.08
2023-02-22T02:20:44.171Z,99841.50
2023-02-22T02:23:56.879Z,99842.02
2023-02-22T02:26:53.140Z,99842.64
2023-02-22T02:29:31.023Z,99842.86
2023-02-22T02:32:19.849Z,99842.02
2023-02-22T02:35:03.557Z,99839.44
2023-02-22T02:37:56.756Z,99836.84
2023-02-22T02:40:39.213Z,99841.84
2023-02-22T02:43:21.648Z,99843.56
2023-02-22T02:46:12.237Z,99841.08
2023-02-22T02:48:54.794Z,99846.63
2023-02-22T02:51:32.467Z,99845.94
2023-02-22T02:54:05.353Z,99844.55
2023-02-22T02:56:37.597Z,99845.94
2023-02-22T02:59:29.523Z,99850.15
2023-02-22T03:02:16.277Z,99854.31
2023-02-22T03:05:24.832Z,99849.15
2023-02-22T03:08:04.304Z,99853.67
2023-02-22T03:11:14.953Z,99854.73
2023-02-22T03:14:11.001Z,99854.58
2023-02-22T03:16:58.031Z,99857.67
2023-02-22T03:19:50.131Z,99859.89
2023-02-22T03:22:27.988Z,99863.17
2023-02-22T03:25:09.010Z,99870.96
2023-02-22T03:27:46.611Z,99868.69
2023-02-22T03:30:25.908Z,99871.73
2023-02-22T03:33:09.157Z,99865.77
2023-02-22T03:35:51.023Z,99865.96
2023-02-22T03:38:26.954Z,99867.25
2023-02-22T03:41:01.931Z,99868.86
2023-02-22T03:43:48.296Z,99871.48
2023-02-22T03:46:20.622Z,99879.96
2023-02-22T03:49:00.300Z,99883.60
2023-02-22T03:51:32.001Z,99889.42
2023-02-22T03:54:05.353Z,99886.63
2023-02-22T03:56:47.474Z,99890.27
2023-02-22T04:02:02.284Z,99895.80
2023-02-22T04:04:34.006Z,99898.60
2023-02-22T04:09:55.674Z,99902.26
2023-02-22T04:12:27.479Z,99907.45
2023-02-22T04:14:59.389Z,99912.30
2023-02-22T04:17:31.209Z,99911.42
2023-02-22T04:20:04.040Z,99913.33
2023-02-22T04:22:36.404Z,99913.17
2023-02-22T04:25:08.222Z,99920.42
2023-02-22T04:27:39.830Z,99917.95
2023-02-22T04:30:12.435Z,99920.00
2023-02-22T04:32:44.889Z,99921.18
2023-02-22T04:35:16.611Z,99920.83
2023-02-22T04:37:48.162Z,99925.84
2023-02-22T04:40:25.192Z,99922.75
2023-02-22T04:42:56.764Z,99921.23
2023-02-22T04:45:28.377Z,99921.77
2023-02-22T04:47:59.971Z,99927.83
2023-02-22T04:50:31.597Z,99925.75
2023-02-22T04:53:03.813Z,99932.85
2023-02-22T04:55:35.926Z,99933.38
2023-02-22T04:58:09.494Z,99929.94
2023-02-22T05:00:41.279Z,99933.94
2023-02-22T05:03:12.872Z,99933.27
2023-02-22T05:05:44.573Z,99937.79
2023-02-22T05:08:16.170Z,99934.19
2023-02-22T05:10:47.825Z,99933.67
2023-02-22T05:13:19.519Z,99928.14
2023-02-22T05:15:51.277Z,99926.06
2023-02-22T05:18:23.037Z,99927.13
2023-02-22T05:20:54.663Z,99924.38
2023-02-22T05:23:26.290Z,99927.33
2023-02-22T05:25:58.397Z,99929.24
2023-02-22T05:28:29.998Z,99926.83
2023-02-22T05:31:01.808Z,99934.47
2023-02-22T05:33:33.457Z,99929.11
2023-02-22T05:36:05.893Z,99926.66
2023-02-22T05:38:43.552Z,99928.55
2023-02-22T05:41:16.084Z,99931.48
2023-02-22T05:43:48.765Z,99932.52
2023-02-22T05:46:20.468Z,99936.86
2023-02-22T05:48:52.121Z,99940.50
2023-02-22T05:51:23.814Z,99944.13
2023-02-22T05:53:55.496Z,99947.08
2023-02-22T05:56:30.488Z,99955.23
2023-02-22T05:59:02.266Z,99958.86
2023-02-22T06:01:33.921Z,99962.67
2023-02-22T06:04:05.700Z,99965.96
2023-02-22T06:06:37.343Z,99967.16
2023-02-22T06:09:08.929Z,99969.42
2023-02-22T06:11:40.646Z,99971.15
2023-02-22T06:14:12.280Z,99973.06
2023-02-22T06:16:44.152Z,99977.39
2023-02-22T06:19:15.792Z,99984.66
2023-02-22T06:21:55.954Z,99982.25
2023-02-22T06:24:27.714Z,99992.63
2023-02-22T06:27:02.047Z,99997.83
2023-02-22T06:29:34.071Z,99996.27
2023-02-22T06:32:05.950Z,99996.10
2023-02-22T06:34:37.770Z,99996.45
2023-02-22T06:37:09.629Z,100001.11
2023-02-22T06:39:41.277Z,100004.59
2023-02-22T06:42:13.775Z,100007.85
2023-02-22T06:44:45.604Z,100006.79
2023-02-22T06:47:17.308Z,100005.40
2023-02-22T06:49:59.713Z,100008.15
2023-02-22T06:52:31.842Z,100013.33
2023-02-22T06:55:04.107Z,100016.77
2023-02-22T06:57:36.619Z,100019.52
2023-02-22T07:00:09.304Z,100021.05
2023-02-22T07:02:40.984Z,100022.10
2023-02-22T07:05:13.418Z,100021.02
2023-02-22T07:07:45.522Z,100025.67
2023-02-22T07:10:30.248Z,100026.19
2023-02-22T07:13:03.666Z,100027.55
2023-02-22T07:15:36.007Z,100032.39
